createdAt,value
2019-05-15T00:00:18.470Z,41.50
2019-05-15T00:02:48.077Z,41.50
2019-05-15T00:05:15.203Z,41.40
2019-05-15T00:07:42.674Z,41.40
2019-05-15T00:10:10.147Z,41.40
2019-05-15T00:12:39.480Z,41.40
2019-05-15T00:15:08.905Z,41.40
2019-05-15T00:17:36.007Z,41.40
2019-05-15T00:20:03.484Z,41.30
2019-05-15T00:22:30.956Z,41.30
2019-05-15T00:24:58.423Z,41.30
2019-05-15T00:27:28.352Z,41.40
2019-05-15T00:29:55.108Z,41.40
2019-05-15T00:32:22.687Z,41.40
2019-05-15T00:34:50.227Z,41.40
2019-05-15T00:37:18.257Z,41.80
2019-05-15T00:39:45.861Z,42.00
2019-05-15T00:42:13.326Z,42.00
2019-05-15T00:44:40.795Z,42.20
2019-05-15T00:47:10.429Z,42.20
2019-05-15T00:49:38.291Z,42.10
2019-05-15T00:52:05.883Z,42.00
2019-05-15T00:54:33.422Z,42.00
2019-05-15T00:57:00.935Z,41.90
2019-05-15T00:59:29.987Z,41.70
2019-05-15T01:01:59.482Z,41.70
2019-05-15T01:04:28.034Z,41.70
2019-05-15T01:06:55.665Z,41.50
2019-05-15T01:09:23.135Z,42.20
2019-05-15T01:11:50.609Z,41.50
2019-05-15T01:14:18.603Z,41.40
2019-05-15T01:16:48.773Z,41.30
2019-05-15T01:19:15.422Z,41.30
2019-05-15T01:21:42.894Z,41.30
2019-05-15T01:24:10.361Z,41.40
2019-05-15T01:26:38.560Z,41.30
2019-05-15T01:29:06.171Z,41.30
2019-05-15T01:31:33.640Z,41.20
2019-05-15T01:34:01.123Z,41.30
2019-05-15T01:36:28.903Z,41.40
2019-05-15T01:38:58.307Z,41.50
2019-05-15T01:41:28.036Z,41.60
2019-05-15T01:43:54.844Z,41.40
2019-05-15T01:46:22.305Z,41.40
2019-05-15T01:48:49.779Z,41.30
2019-05-15T01:51:18.512Z,41.30
2019-05-15T01:53:48.091Z,41.20
2019-05-15T01:56:15.286Z,41.20
2019-05-15T01:58:42.757Z,41.70
2019-05-15T02:01:10.243Z,41.10
2019-05-15T02:03:38.521Z,41.10
2019-05-15T02:06:08.296Z,41.00
2019-05-15T02:08:35.743Z,41.10
2019-05-15T02:11:03.200Z,41.10
2019-05-15T02:13:30.665Z,41.10
2019-05-15T02:15:58.935Z,41.10
2019-05-15T02:18:28.515Z,41.10
2019-05-15T02:20:55.813Z,41.10
2019-05-15T02:23:23.274Z,41.10
2019-05-15T02:25:50.736Z,40.80
2019-05-15T02:28:18.496Z,41.20
2019-05-15T02:30:49.986Z,41.20
2019-05-15T02:33:15.399Z,41.20
2019-05-15T02:35:42.859Z,41.20
2019-05-15T02:38:14.714Z,41.20
2019-05-15T02:40:40.852Z,41.10
2019-05-15T02:43:10.063Z,41.10
2019-05-15T02:45:41.937Z,41.10
2019-05-15T02:48:08.852Z,41.00
2019-05-15T02:50:39.178Z,41.00
2019-05-15T02:53:05.466Z,41.00
2019-05-15T02:55:32.931Z,41.00
2019-05-15T02:58:00.402Z,41.00
2019-05-15T03:00:37.709Z,40.90
2019-05-15T03:02:59.924Z,40.80
2019-05-15T03:05:29.349Z,40.80
2019-05-15T03:07:59.086Z,40.80
2019-05-15T03:10:24.612Z,40.90
2019-05-15T03:12:52.082Z,40.90
2019-05-15T03:15:19.641Z,40.80
2019-05-15T03:17:49.474Z,41.00
2019-05-15T03:20:18.643Z,41.10
2019-05-15T03:22:45.475Z,41.10
2019-05-15T03:25:12.926Z,41.00
2019-05-15T03:27:40.527Z,41.10
2019-05-15T03:30:13.161Z,41.10
2019-05-15T03:32:50.494Z,41.10
2019-05-15T03:35:13.229Z,41.10
2019-05-15T03:37:39.448Z,41.00
2019-05-15T03:40:05.683Z,41.00
2019-05-15T03:42:33.147Z,41.00
2019-05-15T03:45:00.622Z,40.80
2019-05-15T03:47:30.139Z,40.70
2019-05-15T03:49:59.893Z,40.60
2019-05-15T03:52:29.311Z,40.50
2019-05-15T03:54:58.695Z,40.60
2019-05-15T03:57:24.838Z,40.60
2019-05-15T03:59:52.306Z,40.70
2019-05-15T04:02:19.812Z,40.60
2019-05-15T04:04:50.220Z,40.60
2019-05-15T04:07:18.852Z,40.70
2019-05-15T04:09:45.692Z,41.00
2019-05-15T04:12:13.206Z,41.10
2019-05-15T04:14:40.680Z,41.10
2019-05-15T04:17:09.144Z,41.20
2019-05-15T04:19:39.172Z,41.40
2019-05-15T04:22:08.974Z,41.60
2019-05-15T04:24:35.188Z,41.70
2019-05-15T04:27:06.270Z,41.70
2019-05-15T04:29:32.189Z,41.70
2019-05-15T04:32:05.407Z,41.70
2019-05-15T04:34:29.158Z,41.80
2019-05-15T04:36:58.697Z,41.70
2019-05-15T04:39:25.844Z,41.70
2019-05-15T04:41:53.306Z,41.70
2019-05-15T04:44:20.785Z,41.60
2019-05-15T04:46:49.790Z,41.60
2019-05-15T04:49:19.309Z,41.60
2019-05-15T04:51:49.470Z,41.50
2019-05-15T04:54:15.832Z,41.60
2019-05-15T04:56:43.287Z,41.50
2019-05-15T04:59:10.755Z,41.50
2019-05-15T05:01:40.173Z,41.50
2019-05-15T05:04:09.371Z,41.40
2019-05-15T05:06:38.736Z,41.60
2019-05-15T05:09:08.924Z,41.60
2019-05-15T05:11:35.112Z,41.70
2019-05-15T05:14:02.587Z,41.60
2019-05-15T05:16:30.045Z,41.60
2019-05-15T05:18:59.418Z,41.70
2019-05-15T05:21:27.803Z,41.60
2019-05-15T05:23:55.453Z,41.70
2019-05-15T05:26:22.936Z,41.60
2019-05-15T05:28:50.645Z,41.60
2019-05-15T05:31:19.148Z,41.60
2019-05-15T05:33:48.650Z,41.50
2019-05-15T05:36:18.340Z,41.60
2019-05-15T05:38:45.201Z,41.50
2019-05-15T05:41:12.698Z,41.50
2019-05-15T05:43:40.407Z,41.40
2019-05-15T05:46:09.225Z,41.50
2019-05-15T05:48:38.341Z,41.50
2019-05-15T05:51:06.029Z,41.60
2019-05-15T05:53:33.490Z,41.80
2019-05-15T05:56:01.217Z,41.90
2019-05-15T05:58:29.726Z,41.90
2019-05-15T06:00:58.584Z,41.90
2019-05-15T06:03:28.043Z,40.90
2019-05-15T06:05:55.469Z,40.20
2019-05-15T06:08:22.930Z,41.50
2019-05-15T06:10:50.405Z,41.60
2019-05-15T06:13:18.513Z,41.50
2019-05-15T06:15:48.466Z,41.40
2019-05-15T06:18:15.383Z,41.30
2019-05-15T06:20:42.866Z,41.20
2019-05-15T06:23:10.556Z,41.30
2019-05-15T06:25:39.102Z,41.30
2019-05-15T06:28:09.047Z,41.10
2019-05-15T06:30:38.584Z,41.20
2019-05-15T06:33:10.730Z,41.20
2019-05-15T06:35:34.630Z,41.20
2019-05-15T06:38:02.104Z,41.30
2019-05-15T06:40:29.561Z,41.30
2019-05-15T06:42:59.321Z,41.40
2019-05-15T06:45:28.421Z,41.40
2019-05-15T06:47:57.809Z,41.40
2019-05-15T06:50:28.637Z,41.50
2019-05-15T06:52:55.645Z,41.50
2019-05-15T06:55:23.116Z,41.40
2019-05-15T06:57:50.577Z,42.10
2019-05-15T07:00:19.181Z,41.40
2019-05-15T07:02:48.654Z,41.40
2019-05-15T07:05:18.257Z,41.40
2019-05-15T07:07:45.196Z,41.20
2019-05-15T07:10:12.670Z,41.40
2019-05-15T07:12:40.137Z,41.40
2019-05-15T07:15:09.040Z,41.40
2019-05-15T07:17:38.928Z,41.30
2019-05-15T07:20:08.662Z,41.30
2019-05-15T07:22:38.808Z,41.30
2019-05-15T07:25:06.226Z,41.30
2019-05-15T07:27:33.695Z,41.40
2019-05-15T07:30:01.163Z,41.40
2019-05-15T07:32:28.712Z,41.40
2019-05-15T07:34:57.950Z,41.50
2019-05-15T07:37:26.050Z,41.40
2019-05-15T07:39:53.618Z,41.60
2019-05-15T07:42:21.222Z,41.60
2019-05-15T07:44:48.737Z,41.50
2019-05-15T07:47:18.913Z,41.60
2019-05-15T07:49:45.406Z,41.60
2019-05-15T07:52:12.865Z,41.70
2019-05-15T07:54:40.322Z,41.60
2019-05-15T07:57:08.934Z,41.70
2019-05-15T07:59:38.591Z,41.70
2019-05-15T08:02:08.291Z,41.80
2019-05-15T08:04:34.982Z,41.70
2019-05-15T08:07:02.451Z,41.70
2019-05-15T08:09:29.945Z,41.60
2019-05-15T08:12:00.135Z,41.60
2019-05-15T08:14:28.899Z,41.70
2019-05-15T08:16:55.805Z,41.70
2019-05-15T08:19:23.265Z,41.60
2019-05-15T08:21:51.913Z,41.60
2019-05-15T08:24:19.698Z,41.90
2019-05-15T08:26:48.715Z,42.00
2019-05-15T08:29:20.941Z,42.00
2019-05-15T08:31:45.506Z,41.90
2019-05-15T08:34:16.252Z,42.00
2019-05-15T08:36:42.239Z,41.90
2019-05-15T08:39:09.692Z,41.90
2019-05-15T08:41:39.162Z,41.80
2019-05-15T08:44:08.598Z,42.00
2019-05-15T08:46:35.554Z,42.20
2019-05-15T08:49:03.012Z,42.10
2019-05-15T08:51:30.495Z,42.20
2019-05-15T08:53:58.077Z,42.20
2019-05-15T08:56:28.316Z,42.00
2019-05-15T08:58:54.797Z,42.10
2019-05-15T09:01:22.269Z,42.20
2019-05-15T09:03:49.744Z,42.20
2019-05-15T09:06:20.622Z,42.20
2019-05-15T09:08:48.876Z,42.00
2019-05-15T09:11:15.614Z,41.90
2019-05-15T09:13:44.426Z,41.90
2019-05-15T09:16:12.087Z,42.10
2019-05-15T09:18:39.557Z,41.80
2019-05-15T09:21:08.810Z,41.90
2019-05-15T09:23:38.814Z,41.70
2019-05-15T09:26:05.384Z,41.80
2019-05-15T09:28:32.857Z,41.80
2019-05-15T09:31:00.314Z,41.80
2019-05-15T09:33:28.604Z,41.70
2019-05-15T09:35:58.407Z,41.90
2019-05-15T09:38:25.503Z,42.20
2019-05-15T09:40:52.988Z,42.20
2019-05-15T09:43:20.449Z,42.40
2019-05-15T09:45:49.222Z,42.30
2019-05-15T09:48:19.809Z,42.20
2019-05-15T09:50:46.258Z,42.10
2019-05-15T09:53:13.722Z,42.10
2019-05-15T09:55:41.197Z,42.10
2019-05-15T09:58:08.671Z,42.30
2019-05-15T10:00:38.414Z,42.00
2019-05-15T10:03:05.378Z,42.00
2019-05-15T10:05:32.832Z,41.90
2019-05-15T10:08:00.301Z,42.00
2019-05-15T10:10:28.436Z,41.90
2019-05-15T10:12:59.353Z,42.00
2019-05-15T10:15:25.219Z,41.90
2019-05-15T10:17:53.862Z,41.90
2019-05-15T10:20:21.327Z,41.90
2019-05-15T10:22:48.789Z,41.80
2019-05-15T10:25:18.806Z,41.80
2019-05-15T10:27:45.457Z,41.70
2019-05-15T10:30:13.491Z,41.70
2019-05-15T10:32:40.962Z,41.90
2019-05-15T10:35:24.728Z,42.10
2019-05-15T10:37:39.137Z,42.10
2019-05-15T10:40:09.141Z,41.90
2019-05-15T10:42:36.142Z,41.90
2019-05-15T10:45:05.254Z,41.90
2019-05-15T10:47:32.773Z,41.90
2019-05-15T10:50:00.359Z,42.00
2019-05-15T10:52:28.677Z,42.10
2019-05-15T10:54:58.116Z,41.90
2019-05-15T10:57:27.639Z,41.90
2019-05-15T10:59:54.681Z,41.90
2019-05-15T11:02:22.137Z,41.90
2019-05-15T11:04:49.615Z,41.80
2019-05-15T11:07:19.513Z,41.90
2019-05-15T11:09:48.748Z,41.80
2019-05-15T11:12:18.671Z,41.90
2019-05-15T11:14:44.714Z,41.90
2019-05-15T11:17:12.254Z,41.90
2019-05-15T11:19:40.802Z,41.90
2019-05-15T11:22:09.157Z,41.90
2019-05-15T11:24:38.510Z,41.90
2019-05-15T11:27:09.727Z,42.00
2019-05-15T11:29:41.066Z,42.10
2019-05-15T11:32:08.908Z,42.30
2019-05-15T11:34:38.246Z,42.20
2019-05-15T11:37:05.870Z,42.30
2019-05-15T11:39:33.333Z,42.30
2019-05-15T11:42:00.803Z,42.40
2019-05-15T11:44:28.445Z,42.40
2019-05-15T11:46:58.470Z,42.30
2019-05-15T11:49:25.230Z,42.30
2019-05-15T11:51:52.698Z,42.30
2019-05-15T11:54:20.176Z,42.30
2019-05-15T11:56:48.935Z,42.60
2019-05-15T11:59:18.441Z,42.10
2019-05-15T12:01:46.178Z,42.20
2019-05-15T12:04:26.830Z,42.20
2019-05-15T12:06:56.981Z,42.30
2019-05-15T12:09:12.094Z,42.60
2019-05-15T12:11:40.983Z,42.30
2019-05-15T12:14:11.441Z,42.20
2019-05-15T12:16:39.910Z,42.20
2019-05-15T12:19:13.598Z,42.10
2019-05-15T12:21:39.400Z,42.10
2019-05-15T12:24:08.965Z,42.00
2019-05-15T12:26:39.861Z,42.00
2019-05-15T12:29:09.874Z,42.30
2019-05-15T12:31:38.894Z,42.40
2019-05-15T12:34:05.921Z,42.40
2019-05-15T12:36:50.616Z,42.30
2019-05-15T13:01:25.380Z,42.70
2019-05-15T13:03:52.852Z,42.00
2019-05-15T13:06:20.322Z,41.90
2019-05-15T13:08:48.860Z,42.00
2019-05-15T13:11:18.002Z,42.00
2019-05-15T13:13:45.680Z,41.90
2019-05-15T13:16:13.160Z,41.90
2019-05-15T13:18:41.032Z,41.90
2019-05-15T13:21:08.549Z,42.00
2019-05-15T13:23:36.016Z,42.20
2019-05-15T13:26:03.486Z,42.20
2019-05-15T13:28:31.078Z,42.10
2019-05-15T13:30:59.515Z,42.10
2019-05-15T13:33:27.313Z,42.00
2019-05-15T13:35:54.781Z,42.00
2019-05-15T13:38:22.245Z,41.90
2019-05-15T13:40:49.727Z,41.90
2019-05-15T13:43:18.618Z,41.90
2019-05-15T13:45:46.300Z,41.90
2019-05-15T13:48:16.451Z,41.80
2019-05-15T13:50:42.979Z,41.80
2019-05-15T13:53:11.222Z,41.90
2019-05-15T13:55:42.230Z,41.90
2019-05-15T13:58:08.771Z,41.90
2019-05-15T14:00:39.088Z,41.90
2019-05-15T14:03:05.753Z,41.90
2019-05-15T14:05:33.239Z,41.90
2019-05-15T14:08:00.705Z,41.90
2019-05-15T14:10:28.650Z,41.90
2019-05-15T14:12:58.272Z,41.90
2019-05-15T14:15:25.442Z,42.00
2019-05-15T14:17:52.912Z,42.10
2019-05-15T14:20:20.377Z,42.10
2019-05-15T14:22:48.417Z,41.90
2019-05-15T14:25:18.183Z,41.90
2019-05-15T14:27:45.378Z,42.00
2019-05-15T14:30:12.850Z,41.90
2019-05-15T14:32:40.320Z,42.00
2019-05-15T14:35:09.112Z,42.10
2019-05-15T14:37:36.858Z,42.20
2019-05-15T14:40:05.001Z,42.20
2019-05-15T14:42:32.852Z,42.30
2019-05-15T14:45:00.434Z,42.30
2019-05-15T14:47:29.566Z,42.30
2019-05-15T14:49:58.423Z,42.20
2019-05-15T14:52:28.053Z,42.20
2019-05-15T14:54:55.217Z,41.90
2019-05-15T14:57:22.680Z,42.00
2019-05-15T14:59:50.135Z,41.90
2019-05-15T15:02:18.947Z,41.80
2019-05-15T15:04:48.517Z,41.60
2019-05-15T15:07:15.968Z,41.50
2019-05-15T15:09:43.462Z,41.40
2019-05-15T15:12:11.013Z,41.40
2019-05-15T15:14:38.745Z,41.20
2019-05-15T15:17:06.557Z,41.20
2019-05-15T15:19:34.059Z,41.10
2019-05-15T15:22:01.538Z,41.20
2019-05-15T15:24:29.015Z,41.00
2019-05-15T15:26:58.619Z,41.00
2019-05-15T15:29:27.967Z,40.90
2019-05-15T15:31:54.946Z,40.80
2019-05-15T15:34:22.411Z,40.70
2019-05-15T15:36:49.899Z,40.80
2019-05-15T15:39:17.362Z,40.80
2019-05-15T15:41:44.826Z,40.90
2019-05-15T15:44:12.300Z,40.80
2019-05-15T15:46:39.856Z,40.80
2019-05-15T15:49:08.781Z,40.80
2019-05-15T15:51:38.089Z,40.80
2019-05-15T15:54:08.310Z,40.80
2019-05-15T15:56:35.080Z,40.80
2019-05-15T15:59:02.840Z,40.70
2019-05-15T16:01:31.304Z,40.70
2019-05-15T16:03:59.073Z,40.70
2019-05-15T16:06:29.193Z,40.60
2019-05-15T16:08:55.974Z,40.60
2019-05-15T16:11:23.601Z,40.70
2019-05-15T16:13:51.071Z,40.60
2019-05-15T16:16:18.552Z,40.60
2019-05-15T16:18:46.015Z,40.60
2019-05-15T16:21:13.494Z,40.60
2019-05-15T16:23:41.132Z,40.60
2019-05-15T16:26:09.273Z,40.70
2019-05-15T16:28:38.801Z,40.70
2019-05-15T16:31:07.909Z,40.70
2019-05-15T16:33:35.369Z,40.80
2019-05-15T16:36:02.837Z,40.70
2019-05-15T16:38:30.314Z,41.10
2019-05-15T16:40:58.297Z,41.00
2019-05-15T16:43:28.349Z,41.10
2019-05-15T16:45:55.122Z,41.10
2019-05-15T16:48:22.594Z,41.10
2019-05-15T16:50:50.058Z,41.30
2019-05-15T16:53:18.254Z,41.20
2019-05-15T16:55:48.018Z,41.00
2019-05-15T16:58:15.197Z,41.00
2019-05-15T17:00:42.738Z,41.00
2019-05-15T17:03:15.009Z,41.10
2019-05-15T17:05:39.462Z,40.90
2019-05-15T17:08:09.042Z,40.90
2019-05-15T17:10:38.563Z,40.80
2019-05-15T17:13:08.777Z,40.80
2019-05-15T17:15:38.297Z,40.80
2019-05-15T17:18:05.341Z,40.80
2019-05-15T17:20:32.807Z,40.80
2019-05-15T17:23:00.293Z,40.80
2019-05-15T17:25:27.774Z,40.80
2019-05-15T17:27:55.250Z,41.00
2019-05-15T17:30:22.713Z,41.10
2019-05-15T17:32:50.264Z,41.10
2019-05-15T17:35:18.488Z,41.30
2019-05-15T17:37:48.551Z,41.20
2019-05-15T17:40:17.663Z,41.20
2019-05-15T17:42:44.463Z,41.20
2019-05-15T17:45:11.931Z,41.20
2019-05-15T17:47:39.923Z,41.10
2019-05-15T17:50:08.719Z,41.00
2019-05-15T17:52:38.364Z,41.20
2019-05-15T17:55:05.779Z,41.20
2019-05-15T17:57:33.337Z,41.10
2019-05-15T18:00:00.873Z,41.10
2019-05-15T18:02:28.694Z,41.10
2019-05-15T18:04:58.597Z,41.30
2019-05-15T18:07:28.001Z,41.20
2019-05-15T18:09:54.713Z,41.30
2019-05-15T18:12:22.194Z,41.30
2019-05-15T18:14:49.681Z,41.50
2019-05-15T18:17:18.735Z,41.90
2019-05-15T18:19:48.316Z,41.70
2019-05-15T18:22:17.936Z,41.70
2019-05-15T18:24:44.693Z,42.00
2019-05-15T18:27:12.162Z,42.00
2019-05-15T18:29:39.632Z,42.10
2019-05-15T18:32:08.568Z,42.20
2019-05-15T18:34:39.401Z,42.50
2019-05-15T18:37:05.762Z,43.20
2019-05-15T18:39:33.230Z,42.50
2019-05-15T18:42:00.698Z,42.40
2019-05-15T18:44:28.455Z,42.30
2019-05-15T18:46:58.058Z,42.10
2019-05-15T18:49:25.215Z,42.20
2019-05-15T18:51:52.680Z,42.20
2019-05-15T18:54:20.133Z,42.10
2019-05-15T18:56:48.994Z,42.00
2019-05-15T18:59:17.747Z,42.00
2019-05-15T19:01:47.623Z,42.00
2019-05-15T19:04:14.792Z,41.90
2019-05-15T19:06:42.254Z,41.80
2019-05-15T19:09:09.740Z,41.70
2019-05-15T19:11:38.442Z,41.70
2019-05-15T19:14:07.961Z,41.70
2019-05-15T19:16:38.293Z,41.60
2019-05-15T19:19:04.537Z,41.70
2019-05-15T19:21:32.003Z,41.70
2019-05-15T19:23:59.478Z,41.70
2019-05-15T19:26:28.976Z,41.70
2019-05-15T19:28:56.137Z,41.90
2019-05-15T19:31:27.293Z,42.00
2019-05-15T19:33:52.793Z,42.00
2019-05-15T19:36:20.250Z,42.00
2019-05-15T19:38:48.103Z,42.00
2019-05-15T19:41:15.559Z,42.00
2019-05-15T19:43:43.032Z,42.00
2019-05-15T19:46:10.511Z,41.90
2019-05-15T19:48:38.558Z,41.60
2019-05-15T19:51:08.794Z,41.70
2019-05-15T19:53:35.518Z,41.60
2019-05-15T19:56:02.985Z,41.60
2019-05-15T19:58:30.735Z,41.50
2019-05-15T20:00:58.197Z,41.50
2019-05-15T20:03:25.653Z,41.40
2019-05-15T20:05:53.117Z,41.50
2019-05-15T20:08:20.593Z,41.50
2019-05-15T20:10:48.062Z,42.10
2019-05-15T20:13:15.526Z,41.40
2019-05-15T20:15:42.993Z,41.50
2019-05-15T20:18:10.732Z,41.50
2019-05-15T20:20:38.643Z,41.40
2019-05-15T20:23:08.519Z,41.50
2019-05-15T20:25:35.447Z,41.80
2019-05-15T20:28:02.905Z,41.90
2019-05-15T20:30:30.385Z,41.70
2019-05-15T20:32:58.574Z,41.70
2019-05-15T20:35:28.221Z,41.60
2019-05-15T20:37:57.671Z,41.60
2019-05-15T20:40:24.494Z,41.60
2019-05-15T20:42:51.946Z,41.50
2019-05-15T20:45:19.419Z,41.40
2019-05-15T20:47:46.903Z,41.40
2019-05-15T20:50:14.364Z,41.30
2019-05-15T20:52:41.841Z,41.30
2019-05-15T20:55:09.379Z,41.30
2019-05-15T20:57:38.439Z,41.20
2019-05-15T21:00:08.016Z,41.20
2019-05-15T21:02:37.800Z,41.10
2019-05-15T21:05:04.866Z,41.10
2019-05-15T21:07:38.171Z,41.10
2019-05-15T21:10:01.531Z,41.10
2019-05-15T21:12:29.846Z,41.20
2019-05-15T21:14:58.119Z,41.10
2019-05-15T21:17:28.261Z,41.20
2019-05-15T21:19:54.922Z,41.30
2019-05-15T21:22:22.423Z,41.40
2019-05-15T21:24:49.952Z,41.30
2019-05-15T21:27:18.724Z,41.30
2019-05-15T21:29:49.059Z,41.20
2019-05-15T21:32:15.802Z,41.20
2019-05-15T21:34:44.454Z,41.00
2019-05-15T21:37:12.107Z,41.10
2019-05-15T21:39:39.593Z,40.90
2019-05-15T21:42:08.855Z,41.10
2019-05-15T21:44:38.221Z,40.90
2019-05-15T21:47:05.440Z,40.90
2019-05-15T21:49:32.901Z,40.80
2019-05-15T21:52:00.656Z,40.80
2019-05-15T21:54:28.303Z,40.70
2019-05-15T21:57:12.785Z,40.80
2019-05-15T21:59:25.026Z,40.80
2019-05-15T22:01:52.496Z,40.80
2019-05-15T22:04:19.974Z,40.80
2019-05-15T22:06:49.128Z,40.80
2019-05-15T22:09:18.413Z,40.80
2019-05-15T22:11:46.282Z,40.90
2019-05-15T22:14:13.770Z,41.10
2019-05-15T22:16:41.230Z,41.20
2019-05-15T22:19:10.559Z,41.50
2019-05-15T22:21:40.230Z,41.70
2019-05-15T22:24:08.735Z,42.00
2019-05-15T22:26:38.129Z,41.60
2019-05-15T22:29:05.678Z,41.50
2019-05-15T22:31:33.153Z,41.40
2019-05-15T22:34:00.615Z,41.40
2019-05-15T22:36:28.215Z,41.60
2019-05-15T22:38:55.723Z,41.30
2019-05-15T22:41:23.191Z,41.10
2019-05-15T22:43:50.658Z,41.10
2019-05-15T22:46:18.624Z,41.20
2019-05-15T22:48:48.386Z,41.00
2019-05-15T22:51:18.199Z,40.70
2019-05-15T22:53:44.758Z,40.80
2019-05-15T22:56:12.229Z,40.90
2019-05-15T22:58:39.693Z,40.80
2019-05-15T23:01:09.102Z,40.90
2019-05-15T23:03:38.974Z,40.80
2019-05-15T23:06:05.563Z,40.80
2019-05-15T23:08:33.811Z,40.70
2019-05-15T23:11:01.277Z,40.80
2019-05-15T23:13:28.782Z,41.00
2019-05-15T23:15:58.341Z,41.10
2019-05-15T23:18:25.493Z,41.10
2019-05-15T23:20:52.960Z,41.20
2019-05-15T23:23:20.434Z,41.10
2019-05-15T23:25:48.580Z,40.90
2019-05-15T23:28:16.153Z,40.80
2019-05-15T23:30:43.613Z,40.80
2019-05-15T23:33:11.086Z,40.80
2019-05-15T23:35:41.449Z,40.80
2019-05-15T23:38:08.459Z,40.60
2019-05-15T23:40:36.089Z,40.70
2019-05-15T23:43:04.024Z,40.60
2019-05-15T23:45:31.489Z,40.50
2019-05-15T23:47:58.953Z,40.70
2019-05-15T23:50:28.651Z,40.70
2019-05-15T23:52:58.176Z,40.70
2019-05-15T23:55:24.879Z,40.70
2019-05-15T23:57:52.363Z,40.70
